Time;durP1;ratioP1;P1;durP2;ratioP2;P2;SDS_P1;SDS_P2;PMS_P1;PMS_P2;Temp;Humidity;BMP_temperature;BMP_pressure;BME280_temperature;BME280_humidity;BME280_pressure;Samples;Min_cycle;Max_cycle;Signal;HPM_P1;HPM_P2
2022/12/28 00:01:45;;;;;;;7.83;6.63;;;;;;;;;;5073110;28;20423;-75
2022/12/28 00:04:14;;;;;;;6.93;6.33;;;;;;;;;;5064023;28;20557;-76
2022/12/28 00:06:41;;;;;;;8.70;6.07;;;;;;;;;;5060220;28;20445;-73
2022/12/28 00:09:11;;;;;;;5.97;5.37;;;;;;;;;;5063167;28;20465;-75
2022/12/28 00:11:38;;;;;;;6.50;5.90;;;;;;;;;;5069181;28;20436;-75
2022/12/28 00:14:05;;;;;;;8.00;6.27;;;;;;;;;;5068868;28;20443;-74
2022/12/28 00:16:33;;;;;;;6.30;5.70;;;;;;;;;;5050352;28;20435;-76
2022/12/28 00:19:01;;;;;;;7.13;6.30;;;;;;;;;;5045334;28;20448;-76
2022/12/28 00:21:28;;;;;;;7.20;6.50;;;;;;;;;;5043812;28;20450;-75
2022/12/28 00:23:56;;;;;;;7.50;6.90;;;;;;;;;;5039233;28;20501;-74
2022/12/28 00:26:25;;;;;;;6.00;5.40;;;;;;;;;;5056858;28;20434;-75
2022/12/28 00:28:52;;;;;;;7.40;6.30;;;;;;;;;;5064809;28;20430;-74
2022/12/28 00:31:19;;;;;;;5.47;5.00;;;;;;;;;;5060336;28;20453;-75
2022/12/28 00:33:47;;;;;;;6.67;6.00;;;;;;;;;;5065804;28;20501;-74
2022/12/28 00:36:15;;;;;;;5.73;5.23;;;;;;;;;;5093254;28;20436;-76
2022/12/28 00:38:42;;;;;;;6.47;5.87;;;;;;;;;;5088721;28;20460;-74
2022/12/28 00:41:09;;;;;;;6.80;6.10;;;;;;;;;;5061856;28;20446;-75
2022/12/28 00:43:38;;;;;;;5.83;4.73;;;;;;;;;;5063724;28;20533;-74
2022/12/28 00:46:05;;;;;;;5.60;5.03;;;;;;;;;;5067387;28;20455;-73
2022/12/28 00:48:32;;;;;;;5.97;5.57;;;;;;;;;;5088155;28;20445;-75
2022/12/28 00:51:03;;;;;;;6.50;5.90;;;;;;;;;;5084191;28;20444;-74
2022/12/28 00:53:30;;;;;;;5.93;5.40;;;;;;;;;;5062058;28;20448;-73
2022/12/28 00:56:04;;;;;;;6.37;5.73;;;;;;;;;;5074684;28;20428;-75
2022/12/28 00:58:32;;;;;;;6.77;5.83;;;;;;;;;;5056946;28;20468;-74
2022/12/28 01:01:00;;;;;;;8.97;8.17;;;;;;;;;;5048901;28;20619;-75
2022/12/28 01:03:27;;;;;;;6.20;5.70;;;;;;;;;;5051353;28;20479;-74
2022/12/28 01:05:54;;;;;;;8.43;5.90;;;;;;;;;;5052030;28;20449;-75
2022/12/28 01:08:21;;;;;;;6.00;4.80;;;;;;;;;;5051358;28;20495;-74
2022/12/28 01:10:48;;;;;;;5.47;5.07;;;;;;;;;;5051570;28;20456;-73
2022/12/28 01:13:15;;;;;;;5.80;5.30;;;;;;;;;;5051017;28;20449;-74
2022/12/28 01:15:42;;;;;;;9.13;6.10;;;;;;;;;;5051516;28;20825;-75
2022/12/28 01:18:11;;;;;;;6.13;5.60;;;;;;;;;;5050494;28;20834;-75
2022/12/28 01:20:39;;;;;;;6.57;5.87;;;;;;;;;;5050473;28;20444;-76
2022/12/28 01:23:06;;;;;;;5.70;5.20;;;;;;;;;;5050825;28;20476;-76
2022/12/28 01:25:33;;;;;;;5.53;5.07;;;;;;;;;;5053811;28;20442;-75
2022/12/28 01:28:00;;;;;;;5.03;4.63;;;;;;;;;;5049834;28;20473;-75
2022/12/28 01:30:29;;;;;;;5.67;5.13;;;;;;;;;;5050313;28;20456;-74
2022/12/28 01:32:56;;;;;;;5.90;5.40;;;;;;;;;;5049315;28;20523;-75
2022/12/28 01:35:24;;;;;;;6.67;4.50;;;;;;;;;;5050314;28;20448;-74
2022/12/28 01:37:51;;;;;;;5.23;4.83;;;;;;;;;;5050233;28;20461;-74
2022/12/28 01:40:18;;;;;;;8.60;5.93;;;;;;;;;;5050102;28;20501;-75
2022/12/28 01:42:45;;;;;;;7.50;5.87;;;;;;;;;;5049238;28;20441;-74
2022/12/28 01:45:16;;;;;;;4.37;4.00;;;;;;;;;;5049842;28;20456;-75
2022/12/28 01:47:43;;;;;;;5.13;4.73;;;;;;;;;;5049218;28;20821;-75
2022/12/28 01:50:13;;;;;;;7.63;4.70;;;;;;;;;;5049629;28;20471;-77
2022/12/28 01:52:44;;;;;;;4.73;4.33;;;;;;;;;;5049025;28;20487;-75
2022/12/28 01:55:13;;;;;;;4.90;4.60;;;;;;;;;;5049533;28;20541;-76
2022/12/28 01:57:42;;;;;;;9.53;4.87;;;;;;;;;;5049097;28;20465;-75
2022/12/28 02:00:10;;;;;;;5.03;4.53;;;;;;;;;;5049833;28;20443;-76
2022/12/28 02:02:37;;;;;;;5.17;4.40;;;;;;;;;;5048854;28;20485;-74
2022/12/28 02:05:05;;;;;;;7.10;4.30;;;;;;;;;;5049857;28;20492;-74
2022/12/28 02:07:37;;;;;;;4.70;4.20;;;;;;;;;;5049326;28;20465;-75
2022/12/28 02:10:06;;;;;;;4.07;3.77;;;;;;;;;;5053231;28;20425;-76
2022/12/28 02:12:33;;;;;;;5.67;4.70;;;;;;;;;;5052306;28;20450;-75
2022/12/28 02:15:01;;;;;;;4.70;4.30;;;;;;;;;;5053096;28;20447;-75
2022/12/28 02:17:28;;;;;;;4.40;4.10;;;;;;;;;;5052836;28;20880;-74
2022/12/28 02:19:55;;;;;;;4.30;4.00;;;;;;;;;;5053321;28;20452;-77
2022/12/28 02:22:33;;;;;;;6.47;4.73;;;;;;;;;;5055125;28;20465;-75
2022/12/28 02:25:08;;;;;;;4.03;3.67;;;;;;;;;;5056784;28;20990;-74
2022/12/28 02:27:42;;;;;;;5.00;3.50;;;;;;;;;;5053127;28;20483;-76
2022/12/28 02:30:12;;;;;;;3.60;3.30;;;;;;;;;;5053900;28;20458;-74
2022/12/28 02:32:43;;;;;;;4.93;4.10;;;;;;;;;;5052908;28;20446;-74
2022/12/28 02:35:13;;;;;;;4.37;3.53;;;;;;;;;;5053961;28;20429;-74
2022/12/28 02:37:45;;;;;;;3.80;3.50;;;;;;;;;;5055906;28;20466;-74
2022/12/28 02:40:14;;;;;;;4.00;3.50;;;;;;;;;;5073331;28;20436;-74
2022/12/28 02:42:42;;;;;;;3.30;3.00;;;;;;;;;;5072131;28;20963;-75
2022/12/28 02:51:01;;;;;;;5.47;3.03;;;;;;;;;;5072548;28;20463;-74
2022/12/28 02:53:36;;;;;;;3.50;3.30;;;;;;;;;;5071840;28;20456;-76
2022/12/28 02:56:09;;;;;;;3.33;3.07;;;;;;;;;;5071913;28;20449;-75
2022/12/28 02:58:47;;;;;;;3.30;3.10;;;;;;;;;;5072016;28;20887;-75
2022/12/28 03:01:20;;;;;;;2.80;2.60;;;;;;;;;;5072120;28;20527;-75
2022/12/28 03:03:55;;;;;;;3.33;3.13;;;;;;;;;;5071230;28;20487;-75
2022/12/28 03:09:13;;;;;;;2.60;2.40;;;;;;;;;;5072090;28;20483;-73
2022/12/28 03:11:43;;;;;;;2.83;2.63;;;;;;;;;;5072138;28;20440;-74
2022/12/28 03:14:13;;;;;;;2.60;2.40;;;;;;;;;;5062766;28;20448;-74
2022/12/28 03:33:24;;;;;;;2.40;2.20;;;;;;;;;;5029483;28;20986;-74
2022/12/28 03:35:53;;;;;;;2.73;2.40;;;;;;;;;;5052257;28;20467;-76
2022/12/28 03:38:26;;;;;;;2.50;2.40;;;;;;;;;;5060225;28;20469;-75
2022/12/28 03:40:55;;;;;;;2.50;2.30;;;;;;;;;;5057389;28;20448;-76
2022/12/28 03:43:39;;;;;;;2.47;2.27;;;;;;;;;;5054996;28;20442;-74
2022/12/28 03:46:10;;;;;;;2.30;2.20;;;;;;;;;;5056072;28;20487;-74
2022/12/28 03:48:38;;;;;;;2.23;2.13;;;;;;;;;;5054547;28;20477;-75
2022/12/28 03:51:05;;;;;;;2.50;2.30;;;;;;;;;;5052715;28;20448;-74
2022/12/28 03:53:37;;;;;;;2.60;2.10;;;;;;;;;;5050989;28;20440;-75
2022/12/28 03:56:08;;;;;;;2.37;2.17;;;;;;;;;;5051180;28;20435;-76
2022/12/28 03:58:35;;;;;;;2.30;2.20;;;;;;;;;;5051053;28;20563;-75
2022/12/28 04:01:02;;;;;;;4.30;2.13;;;;;;;;;;5050780;28;20563;-75
2022/12/28 04:03:29;;;;;;;2.50;2.37;;;;;;;;;;5050096;28;20526;-74
2022/12/28 04:05:58;;;;;;;2.17;1.97;;;;;;;;;;5050760;28;20448;-74
2022/12/28 04:08:25;;;;;;;2.23;2.00;;;;;;;;;;5050728;28;20465;-75
2022/12/28 04:10:52;;;;;;;3.00;2.17;;;;;;;;;;5050674;28;20484;-74
2022/12/28 04:13:19;;;;;;;2.80;2.50;;;;;;;;;;5049810;28;20452;-74
2022/12/28 04:15:55;;;;;;;2.80;2.60;;;;;;;;;;5050833;28;20855;-75
2022/12/28 04:18:22;;;;;;;4.07;2.50;;;;;;;;;;5050750;28;20453;-74
2022/12/28 04:20:49;;;;;;;2.10;1.90;;;;;;;;;;5050167;28;20797;-75
2022/12/28 04:23:17;;;;;;;4.70;2.40;;;;;;;;;;5049774;28;20441;-74
2022/12/28 04:25:44;;;;;;;2.40;2.20;;;;;;;;;;5050188;28;20440;-74
2022/12/28 04:28:11;;;;;;;2.70;2.50;;;;;;;;;;5050277;28;20477;-74
2022/12/28 04:30:38;;;;;;;1.90;1.80;;;;;;;;;;5050282;28;20924;-74
2022/12/28 04:33:06;;;;;;;1.80;1.70;;;;;;;;;;5049371;28;20450;-76
2022/12/28 04:35:33;;;;;;;2.53;2.33;;;;;;;;;;5050352;28;20443;-75
2022/12/28 04:38:00;;;;;;;3.30;2.03;;;;;;;;;;5050571;28;20466;-75
2022/12/28 04:40:28;;;;;;;2.60;2.23;;;;;;;;;;5050139;28;20447;-73
2022/12/28 04:42:55;;;;;;;2.20;2.10;;;;;;;;;;5049595;28;20548;-74
2022/12/28 04:45:22;;;;;;;2.43;2.13;;;;;;;;;;5049970;28;20479;-74
2022/12/28 04:47:49;;;;;;;2.70;2.00;;;;;;;;;;5050046;28;20461;-75
2022/12/28 04:50:16;;;;;;;1.93;1.83;;;;;;;;;;5050168;28;20832;-75
2022/12/28 04:52:43;;;;;;;2.73;2.07;;;;;;;;;;5049833;28;20493;-74
2022/12/28 04:55:11;;;;;;;3.10;2.07;;;;;;;;;;5049849;28;20521;-75
2022/12/28 04:57:40;;;;;;;2.80;1.87;;;;;;;;;;5050183;28;20463;-74
2022/12/28 05:00:07;;;;;;;1.90;1.80;;;;;;;;;;5050390;28;20447;-75
2022/12/28 05:02:34;;;;;;;1.80;1.70;;;;;;;;;;5049524;28;20452;-75
2022/12/28 05:05:01;;;;;;;2.63;1.83;;;;;;;;;;5050127;28;20477;-74
2022/12/28 05:07:29;;;;;;;2.80;2.10;;;;;;;;;;5050103;28;20479;-75
2022/12/28 05:09:56;;;;;;;1.97;1.77;;;;;;;;;;5049938;28;20944;-77
2022/12/28 05:12:23;;;;;;;2.73;2.50;;;;;;;;;;5050296;28;20825;-76
2022/12/28 05:14:52;;;;;;;1.80;1.70;;;;;;;;;;5049516;28;20449;-76
2022/12/28 05:17:19;;;;;;;2.30;1.67;;;;;;;;;;5049888;28;20484;-74
2022/12/28 05:19:46;;;;;;;1.97;1.87;;;;;;;;;;5051444;28;21181;-74
2022/12/28 05:22:14;;;;;;;2.30;2.20;;;;;;;;;;5070249;28;20444;-74
2022/12/28 05:24:41;;;;;;;1.93;1.83;;;;;;;;;;5069269;28;20495;-74
2022/12/28 05:27:08;;;;;;;1.67;1.67;;;;;;;;;;5069769;28;20582;-74
2022/12/28 05:29:35;;;;;;;3.17;2.30;;;;;;;;;;5069884;28;20510;-75
2022/12/28 05:32:04;;;;;;;2.13;1.93;;;;;;;;;;5069874;28;20463;-76
2022/12/28 05:34:31;;;;;;;1.93;1.73;;;;;;;;;;5069364;28;20517;-74
2022/12/28 05:36:58;;;;;;;1.70;1.60;;;;;;;;;;5069865;28;20818;-75
2022/12/28 05:39:25;;;;;;;3.30;2.00;;;;;;;;;;5069731;28;20986;-75
2022/12/28 05:41:52;;;;;;;3.20;2.07;;;;;;;;;;5070170;28;20798;-75
2022/12/28 05:44:19;;;;;;;1.60;1.50;;;;;;;;;;5071879;28;20487;-75
2022/12/28 05:46:46;;;;;;;2.77;1.80;;;;;;;;;;5073699;28;20971;-74
2022/12/28 05:49:14;;;;;;;1.90;1.80;;;;;;;;;;5073671;28;20463;-74
2022/12/28 05:51:41;;;;;;;1.73;1.63;;;;;;;;;;5073766;28;20443;-75
2022/12/28 05:54:08;;;;;;;2.00;1.80;;;;;;;;;;5073679;28;20516;-75
2022/12/28 05:56:35;;;;;;;1.93;1.83;;;;;;;;;;5073449;28;20494;-76
2022/12/28 05:59:05;;;;;;;1.80;1.70;;;;;;;;;;5073590;28;20794;-74
2022/12/28 06:01:32;;;;;;;1.70;1.60;;;;;;;;;;5073688;28;20483;-75
2022/12/28 06:04:00;;;;;;;1.80;1.70;;;;;;;;;;5072755;28;20448;-76
2022/12/28 06:06:29;;;;;;;2.20;2.00;;;;;;;;;;5073624;28;20452;-73
2022/12/28 06:08:56;;;;;;;2.40;2.20;;;;;;;;;;5073240;28;20531;-76
2022/12/28 06:11:24;;;;;;;1.93;1.83;;;;;;;;;;5073398;28;20439;-74
2022/12/28 06:13:51;;;;;;;2.10;1.90;;;;;;;;;;5071924;28;20451;-74
2022/12/28 06:16:19;;;;;;;3.90;2.10;;;;;;;;;;5053486;28;20444;-75
2022/12/28 06:18:47;;;;;;;1.90;1.80;;;;;;;;;;5061862;28;20472;-76
2022/12/28 06:21:15;;;;;;;2.43;2.30;;;;;;;;;;5060652;28;20494;-74
2022/12/28 06:23:44;;;;;;;3.27;2.20;;;;;;;;;;5052900;28;20452;-75
2022/12/28 06:26:12;;;;;;;4.00;1.90;;;;;;;;;;5052996;28;20492;-75
2022/12/28 06:28:39;;;;;;;2.30;1.70;;;;;;;;;;5053426;28;20519;-74
2022/12/28 06:31:07;;;;;;;3.07;2.07;;;;;;;;;;5053859;28;20495;-75
2022/12/28 06:33:34;;;;;;;1.60;1.57;;;;;;;;;;5055078;28;20498;-74
2022/12/28 06:36:02;;;;;;;2.30;2.00;;;;;;;;;;5054484;28;20445;-74
2022/12/28 06:38:31;;;;;;;4.17;2.60;;;;;;;;;;5056001;28;20476;-74
2022/12/28 06:41:03;;;;;;;2.20;2.00;;;;;;;;;;5056380;28;20485;-75
2022/12/28 06:43:31;;;;;;;3.37;2.13;;;;;;;;;;5053095;28;20430;-76
2022/12/28 06:45:58;;;;;;;2.17;2.00;;;;;;;;;;5052818;28;20550;-74
2022/12/28 06:48:25;;;;;;;2.20;2.10;;;;;;;;;;5053887;28;20461;-77
2022/12/28 06:50:56;;;;;;;3.90;2.03;;;;;;;;;;5053255;28;20454;-75
2022/12/28 06:53:23;;;;;;;2.60;2.50;;;;;;;;;;5052739;28;20788;-75
2022/12/28 06:55:54;;;;;;;2.23;2.03;;;;;;;;;;5055174;28;20508;-75
2022/12/28 06:58:23;;;;;;;3.83;3.53;;;;;;;;;;5057952;28;20480;-75
2022/12/28 07:00:50;;;;;;;2.70;2.50;;;;;;;;;;5057562;28;20447;-74
2022/12/28 07:03:17;;;;;;;5.93;5.43;;;;;;;;;;5056721;28;20483;-74
2022/12/28 07:05:44;;;;;;;9.20;8.40;;;;;;;;;;5067187;28;20488;-75
2022/12/28 07:08:11;;;;;;;6.17;5.60;;;;;;;;;;5064707;28;20533;-75
2022/12/28 07:10:38;;;;;;;3.70;3.50;;;;;;;;;;5055539;28;20472;-75
2022/12/28 07:13:06;;;;;;;3.37;3.07;;;;;;;;;;5053361;28;20468;-75
2022/12/28 07:15:35;;;;;;;2.57;2.37;;;;;;;;;;5053091;28;20441;-76
2022/12/28 07:18:02;;;;;;;2.27;2.17;;;;;;;;;;5052461;28;20470;-76
2022/12/28 07:20:29;;;;;;;2.23;2.13;;;;;;;;;;5052038;28;20452;-75
2022/12/28 07:22:56;;;;;;;2.30;2.10;;;;;;;;;;5049928;28;20448;-74
2022/12/28 07:25:23;;;;;;;2.60;2.50;;;;;;;;;;5051999;28;20485;-74
2022/12/28 07:27:50;;;;;;;3.10;2.90;;;;;;;;;;5051572;28;20476;-75
2022/12/28 07:30:18;;;;;;;2.60;2.33;;;;;;;;;;5051814;28;20507;-74
2022/12/28 07:32:46;;;;;;;2.33;2.13;;;;;;;;;;5050682;28;20529;-75
2022/12/28 07:35:13;;;;;;;2.00;1.90;;;;;;;;;;5051821;28;20440;-75
2022/12/28 07:37:40;;;;;;;3.00;2.40;;;;;;;;;;5051905;28;20473;-76
2022/12/28 07:40:08;;;;;;;5.63;2.50;;;;;;;;;;5051584;28;20968;-75
2022/12/28 07:42:35;;;;;;;3.40;1.93;;;;;;;;;;5050669;28;20437;-74
2022/12/28 07:45:02;;;;;;;2.00;1.90;;;;;;;;;;5051374;28;20599;-75
2022/12/28 07:47:29;;;;;;;1.90;1.80;;;;;;;;;;5046732;28;20592;-75
2022/12/28 07:49:57;;;;;;;4.47;1.90;;;;;;;;;;5031324;28;20454;-75
2022/12/28 07:52:24;;;;;;;1.83;1.77;;;;;;;;;;5051584;28;20513;-75
2022/12/28 07:54:51;;;;;;;3.27;2.70;;;;;;;;;;5047595;28;20465;-77
2022/12/28 07:57:18;;;;;;;2.27;2.13;;;;;;;;;;5051339;28;20465;-75
2022/12/28 07:59:45;;;;;;;2.73;1.80;;;;;;;;;;5051154;28;20442;-75
2022/12/28 08:02:12;;;;;;;2.30;2.10;;;;;;;;;;5065101;28;20451;-76
2022/12/28 08:04:39;;;;;;;2.53;2.27;;;;;;;;;;5052617;28;20898;-75
2022/12/28 08:07:08;;;;;;;3.50;2.10;;;;;;;;;;5050468;28;20465;-74
2022/12/28 08:09:35;;;;;;;2.00;1.90;;;;;;;;;;5050910;28;20459;-75
2022/12/28 08:12:02;;;;;;;3.53;2.13;;;;;;;;;;5051270;28;20456;-75
2022/12/28 08:14:29;;;;;;;3.77;2.50;;;;;;;;;;5049764;28;20988;-75
2022/12/28 08:16:56;;;;;;;2.10;2.00;;;;;;;;;;5050545;28;20571;-75
2022/12/28 08:19:23;;;;;;;2.10;1.90;;;;;;;;;;5050454;28;20459;-75
2022/12/28 08:21:50;;;;;;;2.00;1.90;;;;;;;;;;5050598;28;20457;-74
2022/12/28 08:24:20;;;;;;;2.10;2.00;;;;;;;;;;5050117;28;20446;-74
2022/12/28 08:26:48;;;;;;;4.30;2.43;;;;;;;;;;5050531;28;20519;-74
2022/12/28 08:29:16;;;;;;;3.30;2.77;;;;;;;;;;5050536;28;20449;-74
2022/12/28 08:31:44;;;;;;;2.63;1.87;;;;;;;;;;5050310;28;20449;-76
2022/12/28 08:34:13;;;;;;;2.30;2.10;;;;;;;;;;5050334;28;20457;-76
2022/12/28 08:36:40;;;;;;;2.63;2.43;;;;;;;;;;5050968;28;20449;-76
2022/12/28 08:39:07;;;;;;;3.00;2.80;;;;;;;;;;5050687;28;20471;-74
2022/12/28 08:41:35;;;;;;;2.80;2.47;;;;;;;;;;5050817;28;20445;-77
2022/12/28 08:44:02;;;;;;;2.77;2.17;;;;;;;;;;5050344;28;20437;-76
2022/12/28 08:46:30;;;;;;;1.93;1.80;;;;;;;;;;5050553;28;20485;-75
2022/12/28 08:48:58;;;;;;;2.43;2.13;;;;;;;;;;5053593;28;20940;-75
2022/12/28 08:51:27;;;;;;;2.37;2.17;;;;;;;;;;5050312;28;20438;-74
2022/12/28 08:53:54;;;;;;;2.73;1.97;;;;;;;;;;5050176;28;20441;-75
2022/12/28 08:56:22;;;;;;;2.27;2.10;;;;;;;;;;5050502;28;20445;-75
2022/12/28 08:58:50;;;;;;;2.00;1.90;;;;;;;;;;5050316;28;20461;-76
2022/12/28 09:01:18;;;;;;;8.53;2.23;;;;;;;;;;5050338;28;20446;-74
2022/12/28 09:03:47;;;;;;;2.10;1.97;;;;;;;;;;5049160;28;20929;-75
2022/12/28 09:06:16;;;;;;;4.10;2.17;;;;;;;;;;5050244;28;20477;-76
2022/12/28 09:08:43;;;;;;;2.40;2.20;;;;;;;;;;5049913;28;20457;-75
2022/12/28 09:11:11;;;;;;;1.67;1.67;;;;;;;;;;5051600;28;20449;-73
2022/12/28 09:13:38;;;;;;;1.97;1.87;;;;;;;;;;5050442;28;20441;-75
2022/12/28 09:16:08;;;;;;;2.57;2.07;;;;;;;;;;5050504;28;20518;-75
2022/12/28 09:18:36;;;;;;;2.43;2.13;;;;;;;;;;5049571;28;20470;-77
2022/12/28 09:21:06;;;;;;;2.40;2.20;;;;;;;;;;5049880;28;20445;-75
2022/12/28 09:23:33;;;;;;;4.00;2.90;;;;;;;;;;5053330;28;20520;-75
2022/12/28 09:26:04;;;;;;;2.80;2.13;;;;;;;;;;5054735;28;20927;-74
2022/12/28 09:28:31;;;;;;;2.80;2.60;;;;;;;;;;5055022;28;20472;-75
2022/12/28 09:30:58;;;;;;;2.90;2.43;;;;;;;;;;5053238;28;20452;-73
2022/12/28 09:36:11;;;;;;;2.90;2.50;;;;;;;;;;5051428;28;20565;-75
2022/12/28 09:38:38;;;;;;;2.60;2.40;;;;;;;;;;5049854;28;20465;-75
2022/12/28 09:41:11;;;;;;;2.97;2.43;;;;;;;;;;5051048;28;20442;-75
2022/12/28 09:43:40;;;;;;;2.77;2.57;;;;;;;;;;5050978;28;20453;-74
2022/12/28 09:46:07;;;;;;;2.60;2.40;;;;;;;;;;5052229;28;20484;-76
2022/12/28 09:48:35;;;;;;;2.30;2.10;;;;;;;;;;5050522;28;21043;-75
2022/12/28 09:51:03;;;;;;;2.23;2.13;;;;;;;;;;5050526;28;20517;-76
2022/12/28 09:53:31;;;;;;;2.80;2.60;;;;;;;;;;5049345;28;20446;-76
2022/12/28 09:56:00;;;;;;;2.30;2.00;;;;;;;;;;5049704;28;20453;-74
2022/12/28 09:58:27;;;;;;;2.60;2.40;;;;;;;;;;5049637;28;20461;-75
2022/12/28 10:00:56;;;;;;;3.13;2.53;;;;;;;;;;5049641;28;20472;-76
2022/12/28 10:03:25;;;;;;;3.67;2.30;;;;;;;;;;5049179;28;20449;-75
2022/12/28 10:05:55;;;;;;;1.80;1.70;;;;;;;;;;5049706;28;20852;-75
2022/12/28 10:08:23;;;;;;;3.30;1.90;;;;;;;;;;5049954;28;20469;-75
2022/12/28 10:10:51;;;;;;;2.00;1.90;;;;;;;;;;5049918;28;20442;-75
2022/12/28 10:13:19;;;;;;;2.57;2.43;;;;;;;;;;5049339;28;20850;-75
2022/12/28 10:15:47;;;;;;;2.33;2.10;;;;;;;;;;5049090;28;20853;-75
2022/12/28 10:18:14;;;;;;;1.87;1.77;;;;;;;;;;5049268;28;20468;-74
2022/12/28 10:20:43;;;;;;;1.90;1.70;;;;;;;;;;5049622;28;20476;-76
2022/12/28 10:23:13;;;;;;;1.97;1.87;;;;;;;;;;5048667;28;20446;-75
2022/12/28 10:25:41;;;;;;;2.50;1.90;;;;;;;;;;5049201;28;21020;-76
2022/12/28 10:28:09;;;;;;;3.00;2.03;;;;;;;;;;5048771;28;20486;-76
2022/12/28 10:30:44;;;;;;;2.40;2.20;;;;;;;;;;5052215;28;20453;-75
2022/12/28 10:33:16;;;;;;;1.70;1.60;;;;;;;;;;5052355;28;20893;-76
2022/12/28 10:35:51;;;;;;;3.20;1.50;;;;;;;;;;5054722;28;20452;-75
2022/12/28 10:38:24;;;;;;;1.77;1.60;;;;;;;;;;5053485;28;20523;-75
2022/12/28 10:41:02;;;;;;;1.87;1.77;;;;;;;;;;5052688;28;20519;-75
2022/12/28 10:43:31;;;;;;;2.20;1.70;;;;;;;;;;5052165;28;20454;-75
2022/12/28 10:45:58;;;;;;;1.70;1.60;;;;;;;;;;5051480;28;20476;-75
2022/12/28 10:48:27;;;;;;;2.17;1.97;;;;;;;;;;5059132;28;20457;-76
2022/12/28 10:50:56;;;;;;;1.27;1.27;;;;;;;;;;5061781;28;20446;-74
2022/12/28 10:53:29;;;;;;;2.70;2.00;;;;;;;;;;5060706;28;20516;-75
2022/12/28 10:56:04;;;;;;;1.43;1.30;;;;;;;;;;5061398;28;20517;-75
2022/12/28 10:58:31;;;;;;;1.67;1.57;;;;;;;;;;5059196;28;20448;-75
2022/12/28 11:00:59;;;;;;;2.60;1.90;;;;;;;;;;5040110;28;20876;-75
2022/12/28 11:03:28;;;;;;;1.70;1.60;;;;;;;;;;5033186;28;20954;-75
2022/12/28 11:06:09;;;;;;;5.00;1.70;;;;;;;;;;5033833;28;20474;-75
2022/12/28 11:08:38;;;;;;;1.67;1.67;;;;;;;;;;5034086;28;20494;-75
2022/12/28 11:11:05;;;;;;;4.10;2.10;;;;;;;;;;5033710;28;20456;-76
2022/12/28 11:13:33;;;;;;;1.57;1.47;;;;;;;;;;5033510;28;20525;-76
2022/12/28 11:16:01;;;;;;;1.60;1.50;;;;;;;;;;5052264;28;20933;-76
2022/12/28 11:18:28;;;;;;;2.27;1.80;;;;;;;;;;5053691;28;20473;-78
2022/12/28 11:20:55;;;;;;;2.00;1.80;;;;;;;;;;5052952;28;20448;-76
2022/12/28 11:23:23;;;;;;;2.37;1.40;;;;;;;;;;5052106;28;20445;-76
2022/12/28 11:25:52;;;;;;;1.90;1.60;;;;;;;;;;5052460;28;20988;-76
2022/12/28 11:28:20;;;;;;;1.63;1.20;;;;;;;;;;5052316;28;21005;-76
2022/12/28 11:30:48;;;;;;;1.33;1.23;;;;;;;;;;5052717;28;20692;-75
2022/12/28 11:33:26;;;;;;;2.20;1.10;;;;;;;;;;5050986;28;20450;-75
2022/12/28 11:35:54;;;;;;;1.47;1.30;;;;;;;;;;5052338;28;20442;-74
2022/12/28 11:38:37;;;;;;;1.73;1.60;;;;;;;;;;5051654;28;20549;-75
2022/12/28 11:41:06;;;;;;;1.50;1.40;;;;;;;;;;5050541;28;20492;-75
2022/12/28 11:43:41;;;;;;;1.80;1.70;;;;;;;;;;5050709;28;20449;-75
2022/12/28 11:46:28;;;;;;;1.63;1.30;;;;;;;;;;5051652;28;20984;-76
2022/12/28 11:49:01;;;;;;;2.17;2.00;;;;;;;;;;5051779;28;20467;-75
2022/12/28 11:51:29;;;;;;;2.37;1.73;;;;;;;;;;5055020;28;20491;-75
2022/12/28 11:53:57;;;;;;;1.90;1.80;;;;;;;;;;5059107;28;20499;-75
2022/12/28 11:56:25;;;;;;;2.40;1.57;;;;;;;;;;5057021;28;20472;-75
2022/12/28 11:59:03;;;;;;;1.90;1.80;;;;;;;;;;5053090;28;20446;-75
2022/12/28 12:01:49;;;;;;;2.60;1.70;;;;;;;;;;5052155;28;20483;-76
2022/12/28 12:04:34;;;;;;;1.37;1.27;;;;;;;;;;5055744;28;20453;-75
2022/12/28 12:07:22;;;;;;;2.10;1.57;;;;;;;;;;5067674;28;20477;-76
2022/12/28 12:10:11;;;;;;;2.97;1.43;;;;;;;;;;5026199;28;20453;-75
2022/12/28 12:12:47;;;;;;;2.87;1.43;;;;;;;;;;5050692;28;20445;-76
2022/12/28 12:15:16;;;;;;;2.60;1.63;;;;;;;;;;5051731;28;20491;-76
2022/12/28 12:17:45;;;;;;;1.77;1.67;;;;;;;;;;5049693;28;20522;-75
2022/12/28 12:20:19;;;;;;;1.60;1.40;;;;;;;;;;5055891;28;20430;-75
2022/12/28 12:22:48;;;;;;;1.67;1.57;;;;;;;;;;5051661;28;20423;-76
2022/12/28 12:25:20;;;;;;;1.73;1.63;;;;;;;;;;5043404;28;20442;-75
2022/12/28 12:27:49;;;;;;;1.53;1.40;;;;;;;;;;5037772;28;20490;-76
2022/12/28 12:30:17;;;;;;;2.20;1.30;;;;;;;;;;5031409;28;20459;-76
2022/12/28 12:32:45;;;;;;;2.13;1.60;;;;;;;;;;5030317;28;20450;-76
2022/12/28 12:35:14;;;;;;;2.00;1.80;;;;;;;;;;5030820;28;20934;-74
2022/12/28 12:37:46;;;;;;;1.77;1.67;;;;;;;;;;5031573;28;20538;-76
2022/12/28 12:40:34;;;;;;;4.53;1.60;;;;;;;;;;5030961;28;20517;-75
2022/12/28 12:43:10;;;;;;;2.87;1.80;;;;;;;;;;5030050;28;20453;-74
2022/12/28 12:45:42;;;;;;;2.23;2.10;;;;;;;;;;5030648;28;20442;-76
2022/12/28 12:48:18;;;;;;;2.00;1.80;;;;;;;;;;5030239;28;20478;-74
2022/12/28 12:50:52;;;;;;;2.03;1.77;;;;;;;;;;5030240;28;21164;-76
2022/12/28 12:53:24;;;;;;;1.90;1.53;;;;;;;;;;5029693;28;20450;-76
2022/12/28 12:55:59;;;;;;;1.83;1.73;;;;;;;;;;5030200;28;20438;-76
2022/12/28 12:58:30;;;;;;;2.57;1.63;;;;;;;;;;5030137;28;20473;-75
2022/12/28 13:01:11;;;;;;;1.43;1.33;;;;;;;;;;5030562;28;20442;-75
2022/12/28 13:03:41;;;;;;;2.47;1.70;;;;;;;;;;5029557;28;20530;-75
2022/12/28 13:06:09;;;;;;;2.10;2.00;;;;;;;;;;5030137;28;20504;-75
2022/12/28 13:08:37;;;;;;;1.80;1.70;;;;;;;;;;5030291;28;20791;-75
2022/12/28 13:11:08;;;;;;;1.80;1.63;;;;;;;;;;5030343;28;21033;-76
2022/12/28 13:13:38;;;;;;;1.77;1.67;;;;;;;;;;5030248;28;20448;-75
2022/12/28 13:16:08;;;;;;;3.23;1.70;;;;;;;;;;5050102;28;20445;-74
2022/12/28 13:18:35;;;;;;;1.80;1.70;;;;;;;;;;5050490;28;20472;-75
2022/12/28 13:21:03;;;;;;;1.70;1.60;;;;;;;;;;5050040;28;20599;-76
2022/12/28 13:23:32;;;;;;;2.20;1.60;;;;;;;;;;5049878;28;20450;-75
2022/12/28 13:26:00;;;;;;;1.60;1.50;;;;;;;;;;5051039;28;20972;-75
2022/12/28 13:28:29;;;;;;;2.00;1.83;;;;;;;;;;5050173;28;20569;-75
2022/12/28 13:31:02;;;;;;;3.33;1.57;;;;;;;;;;5050287;28;20824;-75
2022/12/28 13:33:30;;;;;;;2.23;1.90;;;;;;;;;;5050103;28;20976;-75
2022/12/28 13:36:12;;;;;;;2.27;1.53;;;;;;;;;;5050878;28;20557;-75
2022/12/28 13:38:39;;;;;;;1.97;1.87;;;;;;;;;;5050310;28;20457;-75
2022/12/28 13:41:11;;;;;;;2.07;1.97;;;;;;;;;;5053981;28;20454;-75
2022/12/28 13:44:08;;;;;;;1.97;1.87;;;;;;;;;;5049793;28;20450;-74
2022/12/28 13:46:38;;;;;;;2.60;2.00;;;;;;;;;;5050626;28;20444;-75
2022/12/28 13:49:05;;;;;;;3.67;2.00;;;;;;;;;;5050758;28;20864;-75
2022/12/28 13:51:35;;;;;;;2.07;1.87;;;;;;;;;;5050280;28;20820;-76
2022/12/28 13:54:02;;;;;;;2.50;2.30;;;;;;;;;;5049776;28;20441;-76
2022/12/28 13:56:30;;;;;;;2.40;2.20;;;;;;;;;;5050620;28;20449;-76
2022/12/28 13:58:59;;;;;;;2.57;2.13;;;;;;;;;;5052161;28;20460;-75
2022/12/28 14:01:28;;;;;;;3.20;2.73;;;;;;;;;;5051054;28;20445;-76
2022/12/28 14:03:59;;;;;;;3.00;2.50;;;;;;;;;;5052482;28;20437;-75
2022/12/28 14:06:27;;;;;;;3.67;2.20;;;;;;;;;;5057120;28;20441;-74
2022/12/28 14:08:54;;;;;;;3.10;2.90;;;;;;;;;;5057843;28;20830;-75
2022/12/28 14:11:21;;;;;;;2.77;2.57;;;;;;;;;;5057765;28;21112;-75
2022/12/28 14:13:48;;;;;;;2.87;2.23;;;;;;;;;;5054741;28;20462;-75
2022/12/28 14:16:16;;;;;;;2.83;2.33;;;;;;;;;;5035040;28;20724;-76
2022/12/28 14:18:44;;;;;;;2.17;2.07;;;;;;;;;;5033972;28;20465;-76
2022/12/28 14:21:12;;;;;;;1.97;1.87;;;;;;;;;;5033783;28;20451;-75
2022/12/28 14:23:40;;;;;;;2.50;2.30;;;;;;;;;;5032501;28;20964;-76
2022/12/28 14:26:08;;;;;;;2.90;2.70;;;;;;;;;;5032876;28;20944;-76
2022/12/28 14:28:36;;;;;;;2.87;2.67;;;;;;;;;;5033098;28;20486;-76
2022/12/28 14:31:05;;;;;;;2.43;2.23;;;;;;;;;;5033170;28;20443;-76
2022/12/28 14:33:34;;;;;;;3.90;2.87;;;;;;;;;;5032823;28;20446;-76
2022/12/28 14:36:02;;;;;;;2.80;2.57;;;;;;;;;;5032982;28;20449;-75
2022/12/28 14:38:32;;;;;;;3.90;2.60;;;;;;;;;;5033467;28;20472;-74
2022/12/28 14:41:00;;;;;;;3.57;2.80;;;;;;;;;;5033732;28;20455;-74
2022/12/28 14:43:28;;;;;;;3.20;2.90;;;;;;;;;;5033197;28;20445;-75
2022/12/28 14:45:56;;;;;;;5.40;4.20;;;;;;;;;;5032935;28;20461;-76
2022/12/28 14:48:24;;;;;;;3.50;2.90;;;;;;;;;;5032913;28;20478;-78
2022/12/28 14:50:58;;;;;;;4.57;2.70;;;;;;;;;;5033171;28;20453;-75
2022/12/28 14:53:25;;;;;;;3.20;2.90;;;;;;;;;;5032620;28;20448;-75
2022/12/28 14:56:01;;;;;;;2.63;2.40;;;;;;;;;;5033946;28;20569;-76
2022/12/28 14:58:31;;;;;;;2.57;2.37;;;;;;;;;;5035740;28;20466;-75
2022/12/28 15:00:59;;;;;;;3.60;2.53;;;;;;;;;;5033053;28;20442;-75
2022/12/28 15:03:27;;;;;;;4.50;2.53;;;;;;;;;;5031603;28;20438;-75
2022/12/28 15:05:55;;;;;;;4.10;3.00;;;;;;;;;;5032925;28;20450;-75
2022/12/28 15:08:22;;;;;;;3.10;2.90;;;;;;;;;;5032699;28;20490;-75
2022/12/28 15:10:50;;;;;;;2.80;2.50;;;;;;;;;;5033460;28;20804;-74
2022/12/28 15:13:19;;;;;;;4.43;2.50;;;;;;;;;;5033287;28;20478;-75
2022/12/28 15:15:53;;;;;;;2.50;2.30;;;;;;;;;;5049712;28;20989;-75
2022/12/28 15:18:20;;;;;;;2.47;2.27;;;;;;;;;;5053727;28;20465;-75
2022/12/28 15:20:47;;;;;;;3.37;2.70;;;;;;;;;;5053749;28;20457;-75
2022/12/28 15:23:14;;;;;;;2.73;2.53;;;;;;;;;;5051266;28;20454;-75